Time;durP1;ratioP1;P1;durP2;ratioP2;P2;SDS_P1;SDS_P2;PMS_P1;PMS_P2;Temp;Humidity;BMP_temperature;BMP_pressure;BME280_temperature;BME280_humidity;BME280_pressure;Samples;Min_cycle;Max_cycle;Signal;HPM_P1;HPM_P2
2022/06/24 00:05:29;;;;;;;2.53;1.42;;;28.00;66.60;;;;;;10944403;32;20311;-73
2022/06/24 00:11:31;;;;;;;4.60;1.92;;;27.90;66.90;;;;;;10944135;32;20050;-74
2022/06/24 00:17:34;;;;;;;2.55;1.45;;;27.90;66.70;;;;;;10943401;32;20026;-73
2022/06/24 00:23:40;;;;;;;1.52;0.80;;;28.00;66.50;;;;;;10943838;32;20022;-74
2022/06/24 00:29:42;;;;;;;1.77;1.25;;;28.00;66.40;;;;;;10943426;32;20014;-71
2022/06/24 00:35:50;;;;;;;4.32;1.23;;;27.80;66.70;;;;;;10943291;32;20053;-73
2022/06/24 00:41:53;;;;;;;2.17;1.40;;;27.70;67.40;;;;;;10943231;32;20331;-73
2022/06/24 00:47:56;;;;;;;2.67;1.52;;;27.70;67.60;;;;;;10943053;32;20015;-73
2022/06/24 00:54:07;;;;;;;4.60;1.62;;;27.80;67.00;;;;;;10929383;32;20092;-73
2022/06/24 01:00:12;;;;;;;1.10;0.95;;;27.80;66.70;;;;;;10943071;32;20018;-73
2022/06/24 01:06:15;;;;;;;1.92;1.27;;;27.90;66.70;;;;;;10942467;32;20027;-74
2022/06/24 01:12:17;;;;;;;2.00;1.12;;;27.80;66.70;;;;;;10942256;32;20026;-72
2022/06/24 01:18:19;;;;;;;1.70;0.90;;;27.60;66.90;;;;;;10942256;32;20007;-73
2022/06/24 01:24:24;;;;;;;2.15;1.15;;;27.60;67.30;;;;;;10944181;32;20395;-73
2022/06/24 01:30:27;;;;;;;3.33;1.65;;;27.60;67.20;;;;;;10954445;32;20023;-74
2022/06/24 01:36:29;;;;;;;4.82;1.70;;;27.60;67.10;;;;;;10954204;32;20026;-74
2022/06/24 01:42:31;;;;;;;1.73;0.70;;;27.60;66.90;;;;;;10954233;32;20015;-74
2022/06/24 01:48:34;;;;;;;4.37;1.17;;;27.50;66.90;;;;;;10954078;32;20019;-74
2022/06/24 01:54:36;;;;;;;1.45;1.10;;;27.40;67.00;;;;;;10953797;32;20023;-73
2022/06/24 02:00:38;;;;;;;3.53;1.35;;;27.40;67.50;;;;;;10953890;32;20084;-74
2022/06/24 02:06:40;;;;;;;3.35;1.30;;;27.30;67.40;;;;;;10953746;32;20065;-74
2022/06/24 02:19:04;;;;;;;1.52;1.17;;;27.10;67.50;;;;;;10954212;32;20053;-74
2022/06/24 02:25:06;;;;;;;2.12;1.25;;;27.00;67.70;;;;;;10949592;32;20045;-74
2022/06/24 02:31:08;;;;;;;2.85;1.20;;;26.90;67.80;;;;;;10953456;32;20050;-74
2022/06/24 02:37:11;;;;;;;3.37;1.27;;;26.90;67.70;;;;;;10950359;32;20038;-74
2022/06/24 02:43:20;;;;;;;3.00;1.80;;;26.80;67.80;;;;;;10947275;32;20019;-74
2022/06/24 02:49:22;;;;;;;3.60;1.30;;;26.80;67.90;;;;;;10947253;32;20019;-74
2022/06/24 02:55:24;;;;;;;2.25;1.30;;;26.70;68.00;;;;;;10946806;32;20019;-74
2022/06/24 03:01:26;;;;;;;1.87;1.40;;;26.60;68.10;;;;;;10933286;32;20054;-74
2022/06/24 03:07:28;;;;;;;4.28;2.08;;;26.60;68.00;;;;;;10946544;32;20045;-73
2022/06/24 03:13:31;;;;;;;4.47;2.15;;;26.50;68.10;;;;;;10946373;32;20023;-74
2022/06/24 03:19:33;;;;;;;3.80;1.80;;;26.50;68.20;;;;;;10946243;32;20018;-68
2022/06/24 03:25:35;;;;;;;5.93;1.90;;;26.40;68.20;;;;;;10946002;32;20264;-68
2022/06/24 03:31:37;;;;;;;5.15;1.50;;;26.30;68.40;;;;;;10945581;32;20050;-68
2022/06/24 03:37:39;;;;;;;2.65;1.50;;;26.30;68.50;;;;;;10944793;32;20026;-68
2022/06/24 03:43:41;;;;;;;4.95;2.00;;;26.30;68.50;;;;;;10927566;32;20037;-68
2022/06/24 03:49:43;;;;;;;5.22;2.22;;;26.30;68.50;;;;;;10944192;32;20015;-68
2022/06/24 03:55:49;;;;;;;2.95;2.00;;;26.30;68.30;;;;;;10944927;32;20019;-68
2022/06/24 04:01:51;;;;;;;6.10;2.60;;;26.30;68.50;;;;;;10944579;32;20026;-68
2022/06/24 04:07:53;;;;;;;2.30;1.33;;;26.30;68.40;;;;;;10940864;32;20042;-68
2022/06/24 04:13:55;;;;;;;3.62;2.35;;;26.40;68.50;;;;;;10944145;32;20339;-68
2022/06/24 04:19:58;;;;;;;4.07;2.35;;;26.50;68.30;;;;;;10939689;32;20019;-68
2022/06/24 04:26:00;;;;;;;4.22;2.20;;;26.50;68.20;;;;;;10943193;32;20049;-68
2022/06/24 04:32:04;;;;;;;3.75;2.03;;;26.50;68.30;;;;;;11052778;26;20106;-68
2022/06/24 04:38:06;;;;;;;3.72;2.45;;;26.50;68.20;;;;;;11056929;32;20026;-68
2022/06/24 04:44:08;;;;;;;5.45;2.70;;;26.50;68.20;;;;;;11052805;32;20512;-68
2022/06/24 04:50:11;;;;;;;3.35;2.03;;;26.60;68.10;;;;;;11052660;32;20026;-68
2022/06/24 04:56:13;;;;;;;6.57;4.03;;;26.50;68.20;;;;;;11056443;32;20064;-67
2022/06/24 05:02:15;;;;;;;4.32;2.83;;;26.20;68.20;;;;;;11051913;32;20026;-67
2022/06/24 05:08:17;;;;;;;5.53;2.95;;;26.10;68.40;;;;;;11052212;32;20401;-68
2022/06/24 05:14:19;;;;;;;6.12;2.60;;;26.20;68.40;;;;;;11056285;32;20048;-67
2022/06/24 05:20:21;;;;;;;5.47;3.62;;;26.40;67.90;;;;;;11038237;32;20052;-68
2022/06/24 05:26:23;;;;;;;4.22;3.08;;;26.50;68.00;;;;;;11056053;32;20056;-67
2022/06/24 05:32:26;;;;;;;5.60;3.05;;;26.40;67.80;;;;;;11055561;32;20040;-68
2022/06/24 05:38:28;;;;;;;7.47;3.70;;;26.40;67.90;;;;;;11039999;32;20025;-68
2022/06/24 05:44:30;;;;;;;5.07;3.65;;;26.70;67.70;;;;;;11037640;32;20052;-68
2022/06/24 05:50:57;;;;;;;4.93;3.53;;;26.90;67.40;;;;;;11041102;32;20342;-68
2022/06/24 05:56:59;;;;;;;5.60;3.25;;;27.00;67.30;;;;;;11055139;32;20321;-68
2022/06/24 06:03:01;;;;;;;4.57;3.08;;;27.10;67.20;;;;;;11053731;32;20306;-67
2022/06/24 06:09:04;;;;;;;9.00;3.85;;;27.30;67.10;;;;;;11055050;32;20018;-68
2022/06/24 06:15:07;;;;;;;7.35;3.08;;;27.40;66.90;;;;;;11060205;32;20045;-68
2022/06/24 06:21:11;;;;;;;4.47;2.53;;;27.50;66.80;;;;;;11059390;32;20026;-67
2022/06/24 06:27:13;;;;;;;5.57;2.62;;;27.60;66.60;;;;;;11028450;32;20428;-67
2022/06/24 06:33:15;;;;;;;7.32;4.20;;;27.60;66.40;;;;;;11018463;32;20053;-68
2022/06/24 06:39:17;;;;;;;5.47;3.65;;;27.70;66.50;;;;;;11009377;32;20041;-68
2022/06/24 06:45:24;;;;;;;7.65;4.65;;;27.80;66.40;;;;;;11022566;32;20027;-67
2022/06/24 06:51:40;;;;;;;5.95;3.67;;;27.90;65.80;;;;;;11021833;32;20026;-67
2022/06/24 06:57:42;;;;;;;11.65;4.85;;;27.90;65.70;;;;;;11023751;32;20034;-67
2022/06/24 07:03:44;;;;;;;4.68;3.65;;;27.90;65.40;;;;;;11021911;32;20034;-74
2022/06/24 07:09:46;;;;;;;5.60;3.37;;;27.90;65.50;;;;;;11060544;32;20033;-73
2022/06/24 07:15:59;;;;;;;7.55;3.97;;;28.10;65.60;;;;;;11033952;32;20030;-68
2022/06/24 07:22:02;;;;;;;6.40;3.60;;;28.30;65.30;;;;;;11020036;32;20057;-67
2022/06/24 07:28:04;;;;;;;7.75;2.90;;;28.40;64.80;;;;;;11036732;32;20029;-67
2022/06/24 07:34:06;;;;;;;7.45;4.90;;;28.50;64.80;;;;;;11035070;32;20034;-67
2022/06/24 07:40:11;;;;;;;5.82;3.12;;;28.70;64.90;;;;;;11007391;32;20058;-67
2022/06/24 07:46:28;;;;;;;7.80;4.55;;;28.80;64.90;;;;;;11016508;32;20076;-66
2022/06/24 07:52:30;;;;;;;10.97;4.83;;;29.00;64.50;;;;;;11020334;32;20038;-72
2022/06/24 07:58:32;;;;;;;10.85;3.55;;;29.00;64.40;;;;;;11002922;32;20375;-73
2022/06/24 08:04:35;;;;;;;6.43;4.18;;;29.10;64.40;;;;;;11020072;32;20059;-74
2022/06/24 08:10:37;;;;;;;6.57;3.78;;;29.30;63.90;;;;;;11015597;32;20322;-73
2022/06/24 08:16:39;;;;;;;11.80;4.32;;;29.40;63.40;;;;;;11018944;32;20034;-74
2022/06/24 08:22:41;;;;;;;10.07;5.03;;;29.30;63.10;;;;;;11018093;32;20022;-67
2022/06/24 08:28:44;;;;;;;11.77;4.85;;;29.30;62.70;;;;;;11016849;32;20018;-68
2022/06/24 08:34:50;;;;;;;9.55;4.20;;;29.30;62.30;;;;;;11018457;32;20045;-68
2022/06/24 08:40:54;;;;;;;11.57;4.82;;;29.50;62.20;;;;;;11018768;32;20366;-69
2022/06/24 08:46:56;;;;;;;9.82;4.28;;;29.70;61.80;;;;;;11018074;32;20045;-68
2022/06/24 08:53:09;;;;;;;13.45;5.75;;;29.80;61.20;;;;;;11018312;32;20096;-68
2022/06/24 08:59:30;;;;;;;9.02;4.43;;;30.10;60.40;;;;;;11014460;32;20018;-67
2022/06/24 09:05:33;;;;;;;9.95;5.35;;;29.90;60.20;;;;;;11018136;32;20408;-67
2022/06/24 09:11:40;;;;;;;6.95;4.60;;;30.00;59.90;;;;;;11017553;32;20015;-67
2022/06/24 09:17:43;;;;;;;10.73;3.28;;;29.80;59.20;;;;;;11016394;32;20052;-68
2022/06/24 09:23:54;;;;;;;9.80;4.32;;;29.70;59.40;;;;;;11003926;32;20048;-68
2022/06/24 09:29:56;;;;;;;13.10;5.50;;;29.70;59.20;;;;;;11015454;32;20048;-72
2022/06/24 09:36:03;;;;;;;7.18;3.10;;;29.70;58.90;;;;;;11017103;32;20072;-74
2022/06/24 09:42:05;;;;;;;8.63;3.80;;;30.10;58.40;;;;;;11017348;32;20009;-74
2022/06/24 09:48:29;;;;;;;10.15;4.50;;;30.70;57.20;;;;;;11020181;32;20287;-74
2022/06/24 09:54:32;;;;;;;9.20;5.18;;;31.00;55.90;;;;;;11024482;32;20356;-73
2022/06/24 10:00:41;;;;;;;10.23;3.78;;;30.70;55.60;;;;;;11010957;32;20022;-73
2022/06/24 10:06:48;;;;;;;14.23;2.70;;;30.90;55.40;;;;;;11024180;32;20048;-72
2022/06/24 10:12:53;;;;;;;;;;;31.30;54.40;;;;;;11037672;32;20075;-67
2022/06/24 10:18:56;;;;;;;14.85;4.57;;;31.70;53.60;;;;;;11062420;32;19926;-67
2022/06/24 10:24:58;;;;;;;12.13;3.47;;;31.50;52.40;;;;;;11062153;32;20075;-68
2022/06/24 10:31:00;;;;;;;12.88;5.00;;;31.40;52.20;;;;;;11059966;32;20052;-72
2022/06/24 10:37:27;;;;;;;5.62;3.15;;;30.90;52.00;;;;;;11061755;32;20018;-72
2022/06/24 10:43:38;;;;;;;6.85;2.87;;;30.90;51.60;;;;;;11061477;32;20057;-73
2022/06/24 10:49:52;;;;;;;6.07;2.83;;;31.10;51.30;;;;;;11061323;32;20013;-72
2022/06/24 10:55:54;;;;;;;14.77;2.90;;;31.60;49.30;;;;;;11060318;32;20026;-72
2022/06/24 11:01:57;;;;;;;7.57;3.00;;;32.10;48.90;;;;;;11060591;32;20010;-71
2022/06/24 11:08:00;;;;;;;3.80;2.20;;;32.50;47.30;;;;;;11060606;32;20084;-72
2022/06/24 11:14:25;;;;;;;8.73;2.87;;;32.90;46.70;;;;;;10868000;32;20351;-71
2022/06/24 11:20:34;;;;;;;6.28;2.10;;;32.80;45.70;;;;;;10863117;32;20031;-73
2022/06/24 11:26:37;;;;;;;6.23;1.97;;;32.50;45.70;;;;;;10867544;32;20016;-73
2022/06/24 11:32:59;;;;;;;15.75;3.33;;;32.80;43.50;;;;;;11038345;32;20406;-71
2022/06/24 11:39:09;;;;;;;7.82;2.12;;;32.80;42.80;;;;;;11059566;32;20034;-72
2022/06/24 11:45:12;;;;;;;7.72;2.10;;;32.90;41.70;;;;;;11059305;32;20048;-72
2022/06/24 11:51:22;;;;;;;9.35;3.10;;;33.20;41.50;;;;;;11059078;32;20451;-74
2022/06/24 11:57:42;;;;;;;8.68;2.17;;;33.40;40.70;;;;;;11058693;32;20029;-73
2022/06/24 12:03:55;;;;;;;5.20;1.52;;;33.10;40.50;;;;;;11054326;32;20041;-73
2022/06/24 12:09:58;;;;;;;10.13;2.90;;;32.90;41.30;;;;;;11057695;32;20326;-72
2022/06/24 12:16:00;;;;;;;5.32;2.10;;;33.30;40.70;;;;;;11058080;32;20440;-73
2022/06/24 12:22:13;;;;;;;7.03;2.08;;;33.50;40.30;;;;;;11044157;32;20022;-73
2022/06/24 12:28:19;;;;;;;4.25;1.87;;;33.80;38.30;;;;;;11048218;26;20053;-73
2022/06/24 12:34:53;;;;;;;3.20;1.37;;;33.60;39.00;;;;;;11019153;32;20389;-74
2022/06/24 12:41:08;;;;;;;4.10;1.80;;;33.80;39.00;;;;;;11014716;32;20029;-73
2022/06/24 12:53:33;;;;;;;3.47;1.52;;;33.80;39.30;;;;;;11018398;32;20026;-73
2022/06/24 12:59:35;;;;;;;4.53;1.65;;;33.60;39.10;;;;;;11018244;32;20027;-73
2022/06/24 13:05:57;;;;;;;6.65;2.22;;;33.90;39.40;;;;;;11018224;32;20047;-77
2022/06/24 13:11:59;;;;;;;4.10;1.70;;;34.10;38.00;;;;;;11018037;32;20026;-73
2022/06/24 13:18:27;;;;;;;5.60;2.47;;;33.80;37.80;;;;;;11017885;32;20037;-74
2022/06/24 13:24:29;;;;;;;6.28;1.87;;;33.50;37.90;;;;;;11017591;32;20014;-72
2022/06/24 13:30:31;;;;;;;10.50;2.12;;;33.90;38.30;;;;;;11017118;32;20018;-73
2022/06/24 13:36:33;;;;;;;17.12;2.00;;;34.10;38.10;;;;;;11017211;32;20041;-72
2022/06/24 13:42:40;;;;;;;16.60;2.87;;;34.00;37.30;;;;;;11016684;32;20019;-68
2022/06/24 13:48:43;;;;;;;5.60;1.48;;;34.10;37.60;;;;;;11016761;32;20044;-67
2022/06/24 13:54:48;;;;;;;5.53;1.58;;;34.30;37.60;;;;;;11014485;32;20040;-67
2022/06/24 14:00:50;;;;;;;5.07;1.77;;;34.50;37.60;;;;;;11016629;32;20006;-67
2022/06/24 14:06:53;;;;;;;5.72;1.95;;;34.40;37.20;;;;;;11015335;32;20022;-67
2022/06/24 14:12:56;;;;;;;4.03;1.40;;;34.30;37.10;;;;;;11011619;32;20038;-68
2022/06/24 14:18:59;;;;;;;7.93;2.58;;;34.40;37.30;;;;;;11016659;32;20018;-67
2022/06/24 14:25:02;;;;;;;6.60;1.77;;;34.60;37.20;;;;;;10982959;32;20215;-66
2022/06/24 14:31:04;;;;;;;15.02;3.20;;;34.80;37.20;;;;;;10978101;32;20034;-68
2022/06/24 14:43:51;;;;;;;5.50;2.35;;;34.80;36.60;;;;;;10985060;32;20023;-69
2022/06/24 14:49:53;;;;;;;7.82;2.95;;;34.90;36.50;;;;;;10984077;32;20049;-67
2022/06/24 14:55:59;;;;;;;15.35;3.85;;;34.90;37.20;;;;;;10971071;32;20049;-68
2022/06/24 15:02:01;;;;;;;15.80;3.78;;;34.80;39.60;;;;;;10983206;32;20034;-68
2022/06/24 15:08:04;;;;;;;11.65;2.78;;;34.40;42.20;;;;;;10983990;32;20046;-68
2022/06/24 15:14:17;;;;;;;12.95;3.37;;;34.20;44.10;;;;;;10983712;32;20023;-68
2022/06/24 15:20:19;;;;;;;13.85;2.97;;;33.90;44.70;;;;;;10982863;32;20034;-69
2022/06/24 15:26:21;;;;;;;13.30;3.65;;;33.80;44.70;;;;;;11001070;32;20034;-68
2022/06/24 15:32:23;;;;;;;24.92;4.18;;;33.70;45.10;;;;;;11022310;32;20068;-74
2022/06/24 15:38:25;;;;;;;8.18;2.37;;;33.40;47.10;;;;;;11008408;32;20029;-74
2022/06/24 15:44:27;;;;;;;7.00;3.00;;;33.10;47.30;;;;;;11021339;32;20045;-74
2022/06/24 15:50:32;;;;;;;16.37;4.28;;;33.10;47.50;;;;;;11021377;32;20410;-74
2022/06/24 15:56:34;;;;;;;11.90;4.18;;;32.90;47.30;;;;;;11021162;32;20440;-74
2022/06/24 16:02:36;;;;;;;7.78;3.00;;;32.80;48.00;;;;;;11018269;32;20040;-74
2022/06/24 16:08:39;;;;;;;8.73;3.37;;;32.60;48.20;;;;;;10983238;32;20045;-75
2022/06/24 16:14:48;;;;;;;7.65;2.67;;;32.50;48.60;;;;;;10982348;32;20395;-73
2022/06/24 16:20:51;;;;;;;11.98;2.55;;;32.40;48.80;;;;;;10981708;32;20085;-74
2022/06/24 16:33:21;;;;;;;10.63;2.87;;;32.30;49.90;;;;;;10981173;32;20062;-75
2022/06/24 16:39:23;;;;;;;9.55;3.30;;;32.10;50.20;;;;;;10980925;32;20030;-68
2022/06/24 16:45:26;;;;;;;9.50;2.72;;;32.00;49.50;;;;;;10999263;32;20052;-68
2022/06/24 16:51:28;;;;;;;14.38;3.53;;;32.00;49.40;;;;;;10996586;32;20039;-69
2022/06/24 16:57:45;;;;;;;9.85;2.72;;;31.90;49.70;;;;;;10980077;32;20046;-68
2022/06/24 17:03:55;;;;;;;7.80;2.17;;;31.80;50.30;;;;;;10980270;32;20022;-67
2022/06/24 17:10:00;;;;;;;20.92;3.72;;;31.80;50.20;;;;;;10979996;32;20031;-69
2022/06/24 17:16:02;;;;;;;18.05;3.25;;;31.80;50.60;;;;;;10966288;32;20030;-68
2022/06/24 17:22:05;;;;;;;3.00;1.98;;;31.80;50.70;;;;;;10986470;32;20037;-68
2022/06/24 17:28:07;;;;;;;6.47;2.05;;;31.70;50.90;;;;;;10972609;32;20037;-67
2022/06/24 17:34:09;;;;;;;3.55;1.73;;;31.70;50.90;;;;;;11017305;32;20429;-69
2022/06/24 17:40:12;;;;;;;6.45;2.10;;;31.70;50.80;;;;;;11013989;32;20022;-68
2022/06/24 17:46:16;;;;;;;13.73;2.72;;;31.80;50.30;;;;;;11016674;32;20045;-68
2022/06/24 17:52:18;;;;;;;2.30;1.15;;;31.80;49.50;;;;;;11012985;32;20053;-68
2022/06/24 17:58:20;;;;;;;7.55;1.55;;;32.30;48.70;;;;;;11013013;32;20038;-67
2022/06/24 18:04:27;;;;;;;5.53;1.98;;;33.00;47.60;;;;;;11017170;32;20319;-67
2022/06/24 18:10:29;;;;;;;;;;;33.20;48.00;;;;;;11022305;32;20026;-68
2022/06/24 18:16:31;;;;;;;2.33;1.12;;;32.60;47.90;;;;;;11023933;32;20335;-74
2022/06/24 18:22:43;;;;;;;6.62;1.60;;;32.10;46.80;;;;;;11010637;32;20010;-75
2022/06/24 18:28:45;;;;;;;3.97;1.23;;;31.70;46.50;;;;;;11023811;32;20026;-75
2022/06/24 18:34:47;;;;;;;12.20;1.35;;;31.50;46.90;;;;;;11022195;32;20025;-74
2022/06/24 18:40:49;;;;;;;4.93;1.77;;;31.40;47.10;;;;;;10988679;32;20354;-75
2022/06/24 18:46:51;;;;;;;9.02;3.67;;;31.30;47.50;;;;;;10984975;32;20084;-74
2022/06/24 18:52:53;;;;;;;3.85;1.77;;;31.20;46.70;;;;;;10984573;32;20050;-74
2022/06/24 18:58:56;;;;;;;4.00;1.75;;;31.10;47.20;;;;;;10986125;32;20346;-75
2022/06/24 19:04:58;;;;;;;1.75;0.70;;;30.90;47.30;;;;;;10995930;32;20061;-75
2022/06/24 19:11:00;;;;;;;3.00;1.00;;;30.90;47.80;;;;;;11004909;32;20026;-68
2022/06/24 19:17:03;;;;;;;2.53;1.05;;;30.90;48.30;;;;;;10988550;32;20035;-68
2022/06/24 19:23:07;;;;;;;2.17;1.00;;;30.90;48.90;;;;;;10983322;32;20018;-68
2022/06/24 19:29:12;;;;;;;1.75;1.02;;;30.90;49.40;;;;;;10982365;32;20026;-68
2022/06/24 19:35:16;;;;;;;1.42;0.77;;;30.80;49.90;;;;;;10982506;32;20018;-68
2022/06/24 19:41:19;;;;;;;2.95;1.25;;;30.60;50.30;;;;;;10978423;32;20045;-68
2022/06/24 19:47:21;;;;;;;0.35;0.30;;;30.50;50.80;;;;;;10978634;32;20096;-68
2022/06/24 19:53:23;;;;;;;1.77;0.57;;;30.40;51.10;;;;;;10979147;32;20030;-68
2022/06/24 19:59:26;;;;;;;3.70;1.20;;;30.40;51.50;;;;;;10977695;32;20029;-68
2022/06/24 20:05:47;;;;;;;3.03;1.15;;;30.30;51.70;;;;;;10968937;32;20018;-68
2022/06/24 20:12:01;;;;;;;1.40;0.77;;;30.20;52.00;;;;;;10979372;32;20341;-68
2022/06/24 20:18:57;;;;;;;4.50;0.73;;;30.10;52.40;;;;;;10977358;32;20018;-68
2022/06/24 20:25:00;;;;;;;1.05;0.90;;;30.00;52.60;;;;;;10787539;33;20046;-68
2022/06/24 20:31:04;;;;;;;1.77;0.75;;;29.90;52.90;;;;;;10373781;27;13050510;-68
2022/06/24 20:37:06;;;;;;;1.33;0.52;;;29.80;53.30;;;;;;10755459;33;20060;-68
2022/06/24 20:43:08;;;;;;;3.53;1.20;;;29.80;53.40;;;;;;10755135;33;20063;-68
2022/06/24 20:49:10;;;;;;;2.80;1.20;;;29.70;53.70;;;;;;10750196;33;20063;-68
2022/06/24 20:55:12;;;;;;;1.85;0.75;;;29.60;53.80;;;;;;10792909;32;20065;-68
2022/06/24 21:01:14;;;;;;;1.27;0.80;;;29.50;53.90;;;;;;10947108;32;20026;-68
2022/06/24 21:07:17;;;;;;;1.58;0.90;;;29.30;53.90;;;;;;11018317;32;20018;-67
2022/06/24 21:13:36;;;;;;;4.22;1.25;;;29.30;54.10;;;;;;11003318;32;20030;-68
2022/06/24 21:19:38;;;;;;;4.28;1.10;;;29.10;54.00;;;;;;11013776;32;20034;-68
2022/06/24 21:25:40;;;;;;;2.65;1.05;;;29.00;54.30;;;;;;11002135;32;20049;-68
2022/06/24 21:31:42;;;;;;;2.65;0.95;;;28.90;54.10;;;;;;11013432;32;20029;-68
2022/06/24 21:37:44;;;;;;;1.45;0.70;;;28.90;54.40;;;;;;11015076;32;20014;-67
2022/06/24 21:43:46;;;;;;;1.12;0.80;;;28.80;54.00;;;;;;11005348;32;20048;-68
2022/06/24 21:49:48;;;;;;;3.00;0.98;;;28.80;54.20;;;;;;11022652;32;20394;-68
2022/06/24 21:55:53;;;;;;;1.30;0.77;;;28.80;54.40;;;;;;11024998;32;20065;-68
2022/06/24 22:01:55;;;;;;;2.40;0.50;;;28.80;54.60;;;;;;11024751;32;20048;-68
2022/06/24 22:07:57;;;;;;;1.65;0.70;;;28.80;54.70;;;;;;11022295;32;20030;-68
2022/06/24 22:14:14;;;;;;;0.47;0.37;;;28.70;55.00;;;;;;11048319;32;20030;-68
2022/06/24 22:20:16;;;;;;;0.90;0.62;;;28.60;55.10;;;;;;11061447;32;20439;-68
2022/06/24 22:26:19;;;;;;;5.03;1.15;;;28.60;55.40;;;;;;11059203;32;20013;-68
2022/06/24 22:32:20;;;;;;;4.70;1.20;;;28.40;55.40;;;;;;11062206;32;20111;-68
2022/06/24 22:38:23;;;;;;;1.27;0.75;;;28.30;55.20;;;;;;11061063;32;20147;-68
2022/06/24 22:44:25;;;;;;;1.42;0.73;;;28.20;55.40;;;;;;11057525;32;20382;-75
2022/06/24 22:50:27;;;;;;;2.47;0.82;;;28.30;55.70;;;;;;11061552;32;20040;-75
2022/06/24 22:56:29;;;;;;;3.92;0.62;;;28.30;56.00;;;;;;11046839;32;20060;-75
2022/06/24 23:03:02;;;;;;;1.10;0.60;;;28.30;56.30;;;;;;11058768;32;20084;-75
2022/06/24 23:09:06;;;;;;;3.15;1.02;;;28.30;56.60;;;;;;10903501;32;20027;-75
2022/06/24 23:15:09;;;;;;;2.53;1.08;;;28.20;56.60;;;;;;10892287;32;20105;-74
2022/06/24 23:21:11;;;;;;;4.50;0.90;;;28.00;56.80;;;;;;10893185;32;20097;-75
2022/06/24 23:27:40;;;;;;;2.37;0.85;;;27.80;57.00;;;;;;10892509;32;20030;-75
2022/06/24 23:33:42;;;;;;;1.02;0.68;;;27.80;57.30;;;;;;10904940;32;20035;-75
2022/06/24 23:39:53;;;;;;;1.80;0.65;;;28.00;57.50;;;;;;10904697;32;20026;-75
2022/06/24 23:45:56;;;;;;;3.40;1.17;;;28.00;57.40;;;;;;11028149;32;20304;-75
2022/06/24 23:51:58;;;;;;;2.08;0.80;;;28.00;57.70;;;;;;11045723;32;20026;-75
2022/06/24 23:58:24;;;;;;;6.60;0.93;;;28.00;58.00;;;;;;11059163;32;20393;-75
